Mataró Vista Alegre (Maresme)





Hora UTC 16:55
Temperatura 16.1 ºC
Humedad 80.0 %
Presión 1011.8 hPa
Pluja 0.8 mm
Velocidad viento 8.0 km/h
Dirección viento

Datos diarios 2024-04-16



Hora UTC (invierno +1h; verano +2h)
Temperatura (ºC) Humedad (%) Presión (hPa) Velocidad viento (km/h) Precipitación (mm)
Hora UTC Aire Humedad Presión Vel. Dir. Vel. Max Dir. Intent. máx 5 min.
00:05 15.6 90.0 1016.2 3.2 3.2 0.0
00:15 15.5 90.0 1016.2 1.6 9.7 0.0
00:25 15.4 90.0 1016.1 0.0 9.7 0.0
00:35 14.9 90.0 1016.0 0.0 9.7 0.0
00:45 14.6 91.0 1016.0 1.6 9.7 0.0
00:55 14.6 92.0 1015.6 1.6 9.7 0.0
01:05 14.5 92.0 1015.5 1.6 9.7 0.0
01:15 14.3 92.0 1015.5 3.2 9.7 0.0
01:25 14.4 93.0 1015.4 1.6 9.7 0.0
01:35 14.6 93.0 1015.2 0.0 9.7 0.0
01:45 14.8 92.0 1015.2 0.0 9.7 0.0
01:55 14.8 92.0 1014.9 1.6 9.7 0.0
02:05 14.7 92.0 1014.9 0.0 9.7 0.0
02:15 14.7 92.0 1014.9 1.6 9.7 0.0
02:25 15.0 92.0 1014.7 1.6 9.7 0.0
02:35 15.2 91.0 1014.8 0.0 9.7 0.0
02:45 15.3 91.0 1014.8 1.6 9.7 0.0
02:55 15.3 91.0 1014.7 1.6 9.7 0.0
03:05 15.3 90.0 1014.5 1.6 9.7 0.0
03:15 15.3 90.0 1014.5 3.2 9.7 0.0
03:25 15.3 90.0 1014.4 3.2 9.7 0.0
03:35 15.3 90.0 1014.3 1.6 9.7 0.0
03:45 15.2 90.0 1014.3 3.2 9.7 0.0
03:55 15.3 90.0 1014.4 3.2 9.7 0.0
04:05 15.2 90.0 1014.3 3.2 9.7 0.0
04:15 15.2 91.0 1014.3 1.6 9.7 0.0
04:25 15.2 91.0 1014.1 1.6 9.7 0.0
04:35 15.2 91.0 1013.8 1.6 9.7 0.0
04:45 14.5 89.0 1013.8 3.2 9.7 0.2
04:55 14.6 88.0 1013.7 1.6 9.7 0.2
05:05 14.4 88.0 1013.8 3.2 9.7 0.0
05:15 14.2 88.0 1013.8 3.2 9.7 0.2
05:25 13.7 87.0 1013.7 8.0 16.1 0.0
05:35 13.4 86.0 1014.1 6.4 16.1 0.0
05:45 12.9 86.0 1014.1 8.0 16.1 0.0
05:55 12.7 88.0 1014.3 8.0 16.1 0.0
06:05 12.7 88.0 1014.2 8.0 16.1 0.2
06:15 12.6 88.0 1014.2 4.8 16.1 0.0
06:25 12.7 84.0 1014.2 4.8 16.1 0.0
06:35 12.8 85.0 1014.0 6.4 16.1 0.0
06:45 12.7 85.0 1014.0 3.2 16.1 0.0
06:55 13.8 75.0 1014.1 4.8 16.1 0.0
07:05 14.1 72.0 1014.0 4.8 16.1 0.0
07:15 14.3 68.0 1014.0 9.7 17.7 0.0
07:25 14.6 67.0 1013.9 6.4 17.7 0.0
07:35 14.7 67.0 1013.9 4.8 17.7 0.0
07:45 15.0 68.0 1013.9 6.4 17.7 0.0
07:55 15.8 66.0 1013.9 3.2 17.7 0.0
08:05 16.4 65.0 1013.9 3.2 17.7 0.0
08:15 16.2 65.0 1013.9 3.2 17.7 0.0
08:25 15.9 68.0 1014.0 4.8 17.7 0.0
08:35 15.8 69.0 1014.1 4.8 17.7 0.0
08:45 15.8 70.0 1014.1 6.4 17.7 0.0
08:55 15.8 71.0 1014.2 4.8 17.7 0.0
09:05 15.5 76.0 1014.2 8.0 17.7 0.0
09:15 15.8 79.0 1014.2 9.7 17.7 0.0
09:25 16.1 77.0 1014.2 8.0 17.7 0.0
09:35 16.2 72.0 1014.2 9.7 17.7 0.0
09:45 16.4 73.0 1014.2 9.7 17.7 0.0
09:55 16.2 80.0 1014.1 9.7 19.3 0.0
10:05 16.4 78.0 1014.0 9.7 19.3 0.0
10:15 17.0 63.0 1014.0 9.7 19.3 0.0
10:25 17.3 65.0 1013.9 11.3 22.5 0.0
10:35 17.4 67.0 1014.0 11.3 22.5 0.0
10:45 17.4 69.0 1014.0 9.7 22.5 0.0
10:55 17.1 69.0 1013.9 11.3 22.5 0.0
11:05 17.2 70.0 1013.8 9.7 25.7 0.0
11:15 17.5 69.0 1013.8 9.7 25.7 0.0
11:25 17.0 73.0 1013.6 11.3 25.7 0.0
11:35 16.9 73.0 1013.5 11.3 25.7 0.0
11:45 17.7 71.0 1013.5 9.7 25.7 0.0
11:55 17.6 74.0 1013.4 12.9 25.7 0.0
12:05 18.1 72.0 1013.2 9.7 25.7 0.0
12:15 17.3 76.0 1013.2 12.9 27.4 0.0
12:25 16.4 80.0 1013.1 9.7 27.4 0.0
12:35 15.8 80.0 1013.1 12.9 27.4 0.0
12:45 16.1 80.0 1013.1 9.7 27.4 0.0
12:55 16.4 79.0 1013.0 9.7 27.4 0.0
13:05 16.8 77.0 1012.8 8.0 27.4 0.0
13:15 17.0 69.0 1012.8 11.3 27.4 0.0
13:25 17.7 66.0 1012.9 11.3 27.4 0.0
13:35 17.3 64.0 1012.6 14.5 27.4 0.0
13:45 17.3 63.0 1012.6 9.7 27.4 0.0
13:55 17.3 63.0 1012.5 9.7 27.4 0.0
14:05 17.3 63.0 1012.3 11.3 29.0 0.0
14:15 17.5 61.0 1012.3 9.7 29.0 0.0
14:25 17.2 62.0 1012.3 11.3 29.0 0.0
14:35 17.4 63.0 1012.2 8.0 29.0 0.0
14:45 17.1 65.0 1012.2 9.7 29.0 0.0
14:55 17.3 65.0 1012.2 11.3 29.0 0.0
15:05 17.1 67.0 1012.1 9.7 29.0 0.0
15:15 17.2 70.0 1012.1 9.7 29.0 0.0
15:25 17.2 72.0 1012.0 12.9 29.0 0.0
15:35 16.8 74.0 1011.9 14.5 30.6 0.0
15:45 16.9 75.0 1011.9 11.3 30.6 0.0
15:55 16.2 78.0 1011.8 11.3 30.6 0.0
16:05 16.3 79.0 1011.8 11.3 30.6 0.0
16:15 16.2 80.0 1011.8 9.7 30.6 0.0
16:25 16.2 80.0 1011.9 8.0 30.6 0.0
16:35 16.1 80.0 1011.9 6.4 30.6 0.0
16:45 16.2 80.0 1011.9 6.4 30.6 0.0
16:55 16.1 80.0 1011.8 8.0 30.6 0.0
Máxima 18.1 93.0 1016.2 14.5 30.6 0.2
Mínima 12.6 61.0 1011.8
Total 0.8